createdAt,value
2023-03-14T00:00:19.487Z,98054.06
2023-03-14T00:02:46.406Z,98049.03
2023-03-14T00:05:13.278Z,98057.91
2023-03-14T00:07:41.061Z,98060.28
2023-03-14T00:10:13.959Z,98064.16
2023-03-14T00:12:41.606Z,98072.72
2023-03-14T00:15:11.157Z,98078.63
2023-03-14T00:17:38.491Z,98093.03
2023-03-14T00:20:08.237Z,98098.97
2023-03-14T00:22:36.605Z,98098.38
2023-03-14T00:25:05.368Z,98108.69
2023-03-14T00:27:34.323Z,98102.97
2023-03-14T00:30:02.339Z,98100.88
2023-03-14T00:32:30.010Z,98098.69
2023-03-14T00:34:56.871Z,98094.09
2023-03-14T00:37:23.699Z,98089.50
2023-03-14T00:39:52.482Z,98094.72
2023-03-14T00:42:22.211Z,98087.41
2023-03-14T00:44:50.859Z,98096.84
2023-03-14T00:47:17.649Z,98096.59
2023-03-14T00:49:44.715Z,98109.44
2023-03-14T00:52:12.563Z,98100.50
2023-03-14T00:54:39.452Z,98094.56
2023-03-14T00:57:06.478Z,98094.25
2023-03-14T00:59:33.487Z,98095.41
2023-03-14T01:02:01.888Z,98098.69
2023-03-14T01:04:29.297Z,98092.47
2023-03-14T01:06:56.602Z,98106.28
2023-03-14T01:09:23.451Z,98100.31
2023-03-14T01:11:50.367Z,98109.00
2023-03-14T01:14:17.786Z,98102.50
2023-03-14T01:16:44.684Z,98099.50
2023-03-14T01:19:12.909Z,98084.09
2023-03-14T01:21:39.938Z,98091.44
2023-03-14T01:24:08.025Z,98092.47
2023-03-14T01:26:36.434Z,98084.31
2023-03-14T01:29:05.371Z,98079.81
2023-03-14T01:31:35.039Z,98069.81
2023-03-14T01:34:02.832Z,98057.06
2023-03-14T01:36:31.883Z,98052.28
2023-03-14T01:39:01.175Z,98033.88
2023-03-14T01:41:28.783Z,98017.63
2023-03-14T01:43:58.084Z,98003.28
2023-03-14T01:46:35.202Z,98005.22
2023-03-14T01:49:30.541Z,97994.34
2023-03-14T01:52:11.480Z,97986.03
2023-03-14T01:54:43.645Z,97986.50
2023-03-14T01:57:18.398Z,97971.13
2023-03-14T01:59:53.355Z,97976.00
2023-03-14T02:02:21.579Z,97980.59
2023-03-14T02:04:50.423Z,97983.03
2023-03-14T02:07:26.804Z,97976.28
2023-03-14T02:10:13.188Z,97976.84
2023-03-14T02:12:40.784Z,97978.47
2023-03-14T02:15:30.952Z,97978.75
2023-03-14T02:18:04.161Z,97975.69
2023-03-14T02:20:57.238Z,97974.09
2023-03-14T02:23:39.345Z,97967.97
2023-03-14T02:26:16.253Z,97974.66
2023-03-14T02:28:45.273Z,97965.19
2023-03-14T02:31:12.825Z,97963.59
2023-03-14T02:33:39.729Z,97968.75
2023-03-14T02:36:12.803Z,97948.78
2023-03-14T02:38:51.188Z,97945.50
2023-03-14T02:41:20.308Z,97938.53
2023-03-14T02:43:58.358Z,97936.63
2023-03-14T02:46:26.229Z,97934.47
2023-03-14T02:48:58.034Z,97930.97
2023-03-14T02:51:27.128Z,97922.81
2023-03-14T02:53:54.253Z,97931.22
2023-03-14T02:56:22.999Z,97922.53
2023-03-14T02:58:50.160Z,97916.88
2023-03-14T03:01:28.920Z,97927.16
2023-03-14T03:03:55.901Z,97920.38
2023-03-14T03:06:23.047Z,97914.97
2023-03-14T03:08:49.995Z,97921.97
2023-03-14T03:11:17.753Z,97912.50
2023-03-14T03:13:44.805Z,97898.13
2023-03-14T03:16:12.844Z,97910.84
2023-03-14T03:18:41.264Z,97910.59
2023-03-14T03:21:08.319Z,97905.19
2023-03-14T03:23:35.501Z,97899.78
2023-03-14T03:26:02.430Z,97887.63
2023-03-14T03:28:29.576Z,97885.69
2023-03-14T03:30:58.118Z,97882.94
2023-03-14T03:33:25.172Z,97885.91
2023-03-14T03:35:53.604Z,97877.75
2023-03-14T03:38:27.641Z,97876.41
2023-03-14T03:40:56.173Z,97885.03
2023-03-14T03:43:26.031Z,97884.13
2023-03-14T03:45:52.946Z,97881.97
2023-03-14T03:48:21.259Z,97874.13
2023-03-14T03:50:48.906Z,97879.28
2023-03-14T03:53:32.758Z,97876.28
2023-03-14T03:56:01.437Z,97873.91
2023-03-14T03:58:28.487Z,97870.88
2023-03-14T04:00:56.756Z,97870.56
2023-03-14T04:03:24.218Z,97867.53
2023-03-14T04:06:08.775Z,97877.75
2023-03-14T04:08:44.978Z,97870.75
2023-03-14T04:11:34.007Z,97861.22
2023-03-14T04:14:12.266Z,97864.75
2023-03-14T04:16:39.338Z,97869.28
2023-03-14T04:19:12.021Z,97868.75
2023-03-14T04:21:39.059Z,97868.50
2023-03-14T04:24:07.472Z,97870.75
2023-03-14T04:26:37.258Z,97859.94
2023-03-14T04:29:04.325Z,97869.13
2023-03-14T04:31:32.074Z,97870.44
2023-03-14T04:33:58.966Z,97856.69
2023-03-14T04:36:33.432Z,97862.06
2023-03-14T04:39:04.507Z,97860.16
2023-03-14T04:41:33.571Z,97858.28
2023-03-14T04:44:00.990Z,97859.63
2023-03-14T04:46:28.429Z,97850.47
2023-03-14T04:48:55.422Z,97849.66
2023-03-14T04:51:22.283Z,97848.56
2023-03-14T04:53:49.213Z,97842.34
2023-03-14T04:56:16.176Z,97845.59
2023-03-14T04:58:45.595Z,97834.25
2023-03-14T05:01:16.163Z,97827.47
2023-03-14T05:03:52.553Z,97821.50
2023-03-14T05:06:29.072Z,97821.00
2023-03-14T05:09:11.244Z,97814.50
2023-03-14T05:12:10.156Z,97815.84
2023-03-14T05:14:55.743Z,97816.69
2023-03-14T05:17:48.508Z,97807.44
2023-03-14T05:20:41.655Z,97805.50
2023-03-14T05:23:46.643Z,97808.41
2023-03-14T05:26:36.921Z,97802.56
2023-03-14T05:29:31.448Z,97806.03
2023-03-14T05:32:29.098Z,97807.38
2023-03-14T05:35:10.660Z,97811.19
2023-03-14T05:37:53.313Z,97803.44
2023-03-14T05:40:23.050Z,97805.66
2023-03-14T05:43:02.934Z,97799.97
2023-03-14T05:48:49.708Z,97804.81
2023-03-14T05:51:36.317Z,97800.75
2023-03-14T05:54:34.658Z,97805.66
2023-03-14T05:57:13.628Z,97805.19
2023-03-14T06:00:00.902Z,97798.41
2023-03-14T06:02:39.582Z,97797.84
2023-03-14T06:05:18.484Z,97795.72
2023-03-14T06:07:45.754Z,97808.97
2023-03-14T06:10:12.979Z,97797.34
2023-03-14T06:12:39.906Z,97802.44
2023-03-14T06:15:08.832Z,97803.81
2023-03-14T06:17:35.811Z,97806.00
2023-03-14T06:20:09.096Z,97800.03
2023-03-14T06:22:37.319Z,97787.56
2023-03-14T06:25:05.777Z,97795.66
2023-03-14T06:27:33.340Z,97787.56
2023-03-14T06:30:00.314Z,97796.25
2023-03-14T06:32:27.693Z,97794.44
2023-03-14T06:34:58.614Z,97786.16
2023-03-14T06:37:25.558Z,97783.91
2023-03-14T06:39:54.484Z,97782.81
2023-03-14T06:42:44.148Z,97782.22
2023-03-14T06:45:11.661Z,97775.00
2023-03-14T06:47:42.679Z,97767.13
2023-03-14T06:50:37.886Z,97766.00
2023-03-14T06:53:10.563Z,97771.75
2023-03-14T06:55:47.154Z,97772.78
2023-03-14T06:58:22.946Z,97762.69
2023-03-14T07:00:53.391Z,97766.47
2023-03-14T07:03:25.418Z,97775.81
2023-03-14T07:05:55.254Z,97769.25
2023-03-14T07:08:22.379Z,97775.25
2023-03-14T07:10:57.256Z,97779.84
2023-03-14T07:13:26.765Z,97783.34
2023-03-14T07:16:00.581Z,97785.13
2023-03-14T07:18:27.944Z,97785.66
2023-03-14T07:20:56.354Z,97791.88
2023-03-14T07:23:25.556Z,97789.75
2023-03-14T07:25:55.352Z,97787.53
2023-03-14T07:28:26.037Z,97786.22
2023-03-14T07:30:59.400Z,97778.09
2023-03-14T07:33:31.592Z,97781.91
2023-03-14T07:35:58.638Z,97773.25
2023-03-14T07:38:28.505Z,97768.38
2023-03-14T07:41:16.294Z,97765.44
2023-03-14T07:43:55.053Z,97773.03
2023-03-14T07:46:22.321Z,97779.78
2023-03-14T07:48:49.246Z,97785.53
2023-03-14T07:51:16.684Z,97791.22
2023-03-14T07:53:43.542Z,97783.38
2023-03-14T07:56:10.910Z,97780.91
2023-03-14T07:58:39.136Z,97779.75
2023-03-14T08:01:06.824Z,97774.31
2023-03-14T08:03:36.991Z,97773.16
2023-03-14T08:06:04.617Z,97765.25
2023-03-14T08:08:31.448Z,97762.59
2023-03-14T08:11:04.449Z,97756.00
2023-03-14T08:13:34.042Z,97756.34
2023-03-14T08:16:02.336Z,97760.16
2023-03-14T08:18:29.285Z,97759.25
2023-03-14T08:20:56.156Z,97755.06
2023-03-14T08:23:23.008Z,97765.88
2023-03-14T08:25:50.890Z,97768.13
2023-03-14T08:28:19.468Z,97771.13
2023-03-14T08:30:47.857Z,97772.47
2023-03-14T08:33:16.251Z,97764.78
2023-03-14T08:35:43.227Z,97791.94
2023-03-14T08:38:10.111Z,97778.00
2023-03-14T08:40:37.678Z,97788.13
2023-03-14T08:43:04.741Z,97787.16
2023-03-14T08:45:31.648Z,97757.63
2023-03-14T08:47:58.860Z,97798.78
2023-03-14T08:50:27.463Z,97787.28
2023-03-14T08:52:54.366Z,97786.75
2023-03-14T08:55:21.642Z,97782.81
2023-03-14T08:57:48.940Z,97789.47
2023-03-14T09:00:17.436Z,97803.66
2023-03-14T09:02:44.626Z,97801.03
2023-03-14T09:05:12.387Z,97820.19
2023-03-14T09:07:41.599Z,97825.28
2023-03-14T09:10:10.805Z,97838.06
2023-03-14T09:12:40.193Z,97835.69
2023-03-14T09:15:10.954Z,97852.03
2023-03-14T09:17:37.932Z,97849.31
2023-03-14T09:20:05.840Z,97842.16
2023-03-14T09:22:32.758Z,97859.00
2023-03-14T09:25:01.028Z,97849.56
2023-03-14T09:27:27.993Z,97857.03
2023-03-14T09:29:54.825Z,97855.94
2023-03-14T09:32:21.620Z,97861.91
2023-03-14T09:35:18.692Z,97848.66
2023-03-14T09:37:45.751Z,97851.31
2023-03-14T09:40:18.068Z,97853.69
2023-03-14T09:42:45.469Z,97857.22
2023-03-14T09:45:27.241Z,97857.28
2023-03-14T09:48:00.301Z,97857.81
2023-03-14T09:50:38.206Z,97855.59
2023-03-14T09:53:13.645Z,97864.78
2023-03-14T09:55:45.527Z,97856.06
2023-03-14T09:58:17.446Z,97852.81
2023-03-14T10:00:44.976Z,97847.97
2023-03-14T10:03:26.254Z,97837.50
2023-03-14T10:05:56.000Z,97837.53
2023-03-14T10:08:22.995Z,97830.19
2023-03-14T10:10:51.196Z,97830.16
2023-03-14T10:13:21.670Z,97830.06
2023-03-14T10:15:53.487Z,97836.88
2023-03-14T10:18:20.621Z,97838.94
2023-03-14T10:20:49.993Z,97841.59
2023-03-14T10:23:28.101Z,97841.44
2023-03-14T10:26:08.338Z,97843.88
2023-03-14T10:28:43.415Z,97835.72
2023-03-14T10:31:10.677Z,97840.97
2023-03-14T10:33:39.373Z,97842.53
2023-03-14T10:36:21.343Z,97847.09
2023-03-14T10:38:48.750Z,97850.22
2023-03-14T10:41:24.765Z,97855.91
2023-03-14T10:43:56.975Z,97856.38
2023-03-14T10:46:27.248Z,97859.31
2023-03-14T10:49:28.516Z,97851.22
2023-03-14T10:51:55.371Z,97867.03
2023-03-14T10:54:24.249Z,97872.19
2023-03-14T10:57:01.860Z,97875.72
2023-03-14T10:59:39.480Z,97871.63
2023-03-14T11:02:32.551Z,97861.88
2023-03-14T11:05:14.552Z,97860.53
2023-03-14T11:07:44.209Z,97868.41
2023-03-14T11:10:24.707Z,97868.16
2023-03-14T11:13:16.466Z,97870.84
2023-03-14T11:15:58.921Z,97879.75
2023-03-14T11:19:01.298Z,97880.06
2023-03-14T11:21:36.695Z,97874.34
2023-03-14T11:24:39.180Z,97886.84
2023-03-14T11:27:19.008Z,97877.03
2023-03-14T11:29:57.154Z,97882.44
2023-03-14T11:32:44.564Z,97891.16
2023-03-14T11:35:24.140Z,97893.59
2023-03-14T11:38:04.189Z,97885.47
2023-03-14T11:40:35.058Z,97887.59
2023-03-14T11:43:14.766Z,97889.75
2023-03-14T11:45:46.143Z,97905.75
2023-03-14T11:48:36.460Z,97903.56
2023-03-14T11:51:16.280Z,97899.53
2023-03-14T11:54:15.346Z,97901.97
2023-03-14T11:56:54.181Z,97897.94
2023-03-14T11:59:42.375Z,97926.88
2023-03-14T12:02:25.531Z,97932.28
2023-03-14T12:05:24.270Z,97923.59
2023-03-14T12:08:33.856Z,97943.13
2023-03-14T12:11:13.233Z,97943.88
2023-03-14T12:13:46.785Z,97957.94
2023-03-14T12:16:35.646Z,97972.56
2023-03-14T12:19:34.195Z,97982.34
2023-03-14T12:22:26.816Z,97999.91
2023-03-14T12:25:01.769Z,98012.13
2023-03-14T12:28:04.669Z,98017.25
2023-03-14T12:30:35.343Z,98027.34
2023-03-14T12:33:30.747Z,98049.94
2023-03-14T12:36:42.266Z,98053.59
2023-03-14T12:39:25.826Z,98073.75
2023-03-14T12:42:02.063Z,98092.00
2023-03-14T12:44:47.709Z,98095.41
2023-03-14T12:47:51.190Z,98118.28
2023-03-14T12:50:26.731Z,98140.44
2023-03-14T12:53:55.693Z,98130.53
2023-03-14T12:56:29.421Z,98145.22
2023-03-14T12:59:29.637Z,98155.66
2023-03-14T13:02:02.293Z,98164.75
2023-03-14T13:04:40.469Z,98162.75
2023-03-14T13:07:13.873Z,98167.44
2023-03-14T13:10:05.363Z,98180.19
2023-03-14T13:12:48.842Z,98188.06
2023-03-14T13:15:23.638Z,98196.28
2023-03-14T13:17:55.315Z,98196.03
2023-03-14T13:20:31.595Z,98208.03
2023-03-14T13:22:58.391Z,98218.84
2023-03-14T13:25:33.148Z,98218.50
2023-03-14T13:28:01.788Z,98246.47
2023-03-14T13:30:37.700Z,98248.56
2023-03-14T13:33:05.998Z,98246.13
2023-03-14T13:35:42.510Z,98247.81
2023-03-14T13:38:18.677Z,98263.06
2023-03-14T13:40:49.404Z,98274.72
2023-03-14T13:43:21.941Z,98286.72
2023-03-14T13:45:56.473Z,98292.88
2023-03-14T13:48:29.048Z,98303.91
2023-03-14T13:51:01.681Z,98307.56
2023-03-14T13:53:29.183Z,98320.28
2023-03-14T13:55:57.808Z,98318.59
2023-03-14T13:58:29.259Z,98343.28
2023-03-14T14:01:02.691Z,98351.88
2023-03-14T14:03:33.563Z,98353.72
2023-03-14T14:06:01.481Z,98351.25
2023-03-14T14:08:28.548Z,98358.16
2023-03-14T14:11:03.682Z,98356.69
2023-03-14T14:13:36.080Z,98361.09
2023-03-14T14:16:04.493Z,98369.03
2023-03-14T14:18:35.601Z,98386.94
2023-03-14T14:21:04.380Z,98391.41
2023-03-14T14:23:32.062Z,98394.44
2023-03-14T14:26:01.040Z,98412.66
2023-03-14T14:28:30.919Z,98401.50
2023-03-14T14:31:17.826Z,98425.25
2023-03-14T14:33:47.378Z,98432.81
2023-03-14T14:36:21.707Z,98437.28
2023-03-14T14:38:59.487Z,98448.84
2023-03-14T14:41:34.759Z,98460.38
2023-03-14T14:44:04.627Z,98452.53
2023-03-14T14:46:36.801Z,98450.56
2023-03-14T14:49:09.917Z,98470.72
2023-03-14T14:51:44.175Z,98464.38
2023-03-14T14:54:16.437Z,98484.47
2023-03-14T14:56:51.430Z,98476.19
2023-03-14T14:59:25.030Z,98466.63
2023-03-14T15:01:58.280Z,98479.31
2023-03-14T15:04:28.637Z,98465.16
2023-03-14T15:06:55.707Z,98474.22
2023-03-14T15:09:24.790Z,98467.34
2023-03-14T15:11:53.608Z,98472.16
2023-03-14T15:14:23.132Z,98474.97
2023-03-14T15:16:50.444Z,98475.19
2023-03-14T15:19:26.243Z,98488.88
2023-03-14T15:21:55.403Z,98502.28
2023-03-14T15:24:25.509Z,98496.88
2023-03-14T15:26:53.887Z,98515.75
2023-03-14T15:29:21.557Z,98515.41
2023-03-14T15:31:48.659Z,98518.84
2023-03-14T15:34:15.668Z,98525.00
2023-03-14T15:36:42.618Z,98526.16
2023-03-14T15:39:11.802Z,98531.81
2023-03-14T15:41:41.293Z,98537.47
2023-03-14T15:44:09.646Z,98548.44
2023-03-14T15:46:42.653Z,98540.25
2023-03-14T15:49:34.420Z,98529.19
2023-03-14T15:52:06.603Z,98536.41
2023-03-14T15:54:33.445Z,98553.00
2023-03-14T15:57:00.578Z,98567.50
2023-03-14T15:59:29.162Z,98565.03
2023-03-14T16:01:56.384Z,98568.22
2023-03-14T16:04:23.484Z,98575.53
2023-03-14T16:06:50.628Z,98574.28
2023-03-14T16:09:17.587Z,98571.63
2023-03-14T16:11:44.420Z,98575.88
2023-03-14T16:14:11.274Z,98588.13
2023-03-14T16:16:39.491Z,98590.75
2023-03-14T16:19:07.580Z,98587.94
2023-03-14T16:21:34.424Z,98602.22
2023-03-14T16:24:01.382Z,98607.16
2023-03-14T16:26:28.396Z,98612.69
2023-03-14T16:28:55.276Z,98601.69
2023-03-14T16:31:22.107Z,98620.81
2023-03-14T16:33:50.407Z,98617.16
2023-03-14T16:36:17.361Z,98626.31
2023-03-14T16:38:45.779Z,98622.22
2023-03-14T16:41:15.003Z,98631.13
2023-03-14T16:43:42.773Z,98639.66
2023-03-14T16:46:15.012Z,98645.75
2023-03-14T16:48:42.491Z,98645.69
2023-03-14T16:51:11.022Z,98650.44
2023-03-14T16:53:37.890Z,98653.16
2023-03-14T16:56:05.790Z,98671.59
2023-03-14T16:58:32.669Z,98669.97
2023-03-14T17:00:59.475Z,98686.81
2023-03-14T17:03:26.491Z,98688.22
2023-03-14T17:05:53.656Z,98695.03
2023-03-14T17:08:22.111Z,98704.66
2023-03-14T17:10:49.026Z,98700.56
2023-03-14T17:13:16.225Z,98699.34
2023-03-14T17:15:47.055Z,98688.94
2023-03-14T17:18:14.104Z,98702.03
2023-03-14T17:20:41.039Z,98717.06
2023-03-14T17:23:08.006Z,98724.66
2023-03-14T17:25:37.432Z,98732.00
2023-03-14T17:28:04.919Z,98748.66
2023-03-14T17:30:32.310Z,98745.59
2023-03-14T17:32:59.237Z,98749.78
2023-03-14T17:35:26.254Z,98754.16
2023-03-14T17:37:53.038Z,98750.41
2023-03-14T17:40:19.831Z,98760.22
2023-03-14T17:42:48.441Z,98766.31
2023-03-14T17:45:15.756Z,98770.59
2023-03-14T17:47:47.743Z,98766.03
2023-03-14T17:50:15.104Z,98774.47
2023-03-14T17:52:42.370Z,98775.53
2023-03-14T17:55:10.234Z,98789.44
2023-03-14T17:57:37.550Z,98801.28
2023-03-14T18:00:08.414Z,98802.31
2023-03-14T18:02:36.035Z,98798.66
2023-03-14T18:05:06.649Z,98806.75
2023-03-14T18:07:34.039Z,98807.44
2023-03-14T18:10:01.015Z,98805.13
2023-03-14T18:12:28.300Z,98815.00
2023-03-14T18:14:55.177Z,98806.75
2023-03-14T18:17:23.570Z,98806.09
2023-03-14T18:19:50.459Z,98811.78
2023-03-14T18:22:17.339Z,98810.59
2023-03-14T18:24:44.199Z,98810.59
2023-03-14T18:27:11.250Z,98836.19
2023-03-14T18:29:38.003Z,98844.41
2023-03-14T18:32:05.503Z,98848.59
2023-03-14T18:34:33.918Z,98859.97
2023-03-14T18:37:01.508Z,98860.94
2023-03-14T18:39:28.647Z,98870.06
2023-03-14T18:41:55.503Z,98876.09
2023-03-14T18:44:22.475Z,98886.88
2023-03-14T18:46:49.346Z,98885.03
2023-03-14T18:49:16.330Z,98890.00
2023-03-14T18:51:44.584Z,98900.88
2023-03-14T18:54:11.392Z,98894.63
2023-03-14T18:56:40.276Z,98902.91
2023-03-14T18:59:07.764Z,98911.75
2023-03-14T19:01:35.882Z,98913.34
2023-03-14T19:04:03.972Z,98904.63
2023-03-14T19:06:32.865Z,98925.09
2023-03-14T19:09:02.357Z,98917.66
2023-03-14T19:11:29.190Z,98932.53
2023-03-14T19:13:56.068Z,98935.44
2023-03-14T19:16:23.458Z,98936.09
2023-03-14T19:18:50.562Z,98938.78
2023-03-14T19:21:28.060Z,98935.66
2023-03-14T19:23:55.033Z,98947.34
2023-03-14T19:26:23.626Z,98942.59
2023-03-14T19:28:50.722Z,98971.97
2023-03-14T19:31:17.602Z,98960.59
2023-03-14T19:33:44.697Z,98960.41
2023-03-14T19:36:22.153Z,98958.59
2023-03-14T19:38:50.547Z,98980.75
2023-03-14T19:41:17.430Z,98987.19
2023-03-14T19:43:45.800Z,98991.72
2023-03-14T19:46:12.934Z,98994.19
2023-03-14T19:48:39.891Z,98992.31
2023-03-14T19:51:07.352Z,99010.28
2023-03-14T19:53:34.662Z,99012.97
2023-03-14T19:56:05.048Z,99035.72
2023-03-14T19:58:33.358Z,99065.94
2023-03-14T20:01:01.581Z,99057.13
2023-03-14T20:03:28.398Z,99050.97
2023-03-14T20:05:56.031Z,99052.41
2023-03-14T20:08:23.679Z,99044.16
2023-03-14T20:10:50.741Z,99044.78
2023-03-14T20:13:21.895Z,99046.63
2023-03-14T20:15:50.169Z,99043.72
2023-03-14T20:18:18.975Z,99044.34
2023-03-14T20:20:46.802Z,99051.75
2023-03-14T20:23:13.674Z,99048.47
2023-03-14T20:25:40.468Z,99054.84
2023-03-14T20:28:07.728Z,99057.75
2023-03-14T20:30:34.943Z,99054.22
2023-03-14T20:33:01.746Z,99056.94
2023-03-14T20:35:30.850Z,99056.53
2023-03-14T20:37:57.689Z,99064.81
2023-03-14T20:40:26.389Z,99055.72
2023-03-14T20:42:53.168Z,99063.56
2023-03-14T20:45:20.210Z,99058.41
2023-03-14T20:47:47.069Z,99068.69
2023-03-14T20:50:14.064Z,99063.75
2023-03-14T20:52:42.333Z,99065.41
2023-03-14T20:55:10.376Z,99063.78
2023-03-14T20:57:37.439Z,99067.88
2023-03-14T21:00:05.776Z,99066.81
2023-03-14T21:02:34.034Z,99069.94
2023-03-14T21:05:01.239Z,99077.59
2023-03-14T21:07:30.550Z,99078.22
2023-03-14T21:09:58.693Z,99072.03
2023-03-14T21:12:25.445Z,99082.16
2023-03-14T21:14:52.370Z,99078.63
2023-03-14T21:17:19.202Z,99085.66
2023-03-14T21:19:46.234Z,99082.97
2023-03-14T21:22:13.133Z,99083.81
2023-03-14T21:24:40.028Z,99080.91
2023-03-14T21:27:08.445Z,99087.53
2023-03-14T21:29:35.266Z,99070.19
2023-03-14T21:32:02.057Z,99081.53
2023-03-14T21:34:29.972Z,99076.97
2023-03-14T21:36:56.871Z,99080.09
2023-03-14T21:39:23.941Z,99092.28
2023-03-14T21:41:50.706Z,99103.63
2023-03-14T21:44:18.945Z,99106.75
2023-03-14T21:46:46.180Z,99124.25
2023-03-14T21:49:13.466Z,99129.13
2023-03-14T21:51:40.994Z,99135.41
2023-03-14T21:54:07.942Z,99135.75
2023-03-14T21:56:34.913Z,99141.44
2023-03-14T21:59:01.712Z,99155.72
2023-03-14T22:01:30.253Z,99159.63
2023-03-14T22:03:57.081Z,99167.63
2023-03-14T22:06:24.031Z,99175.19
2023-03-14T22:08:51.086Z,99171.56
2023-03-14T22:11:17.872Z,99174.25
2023-03-14T22:13:44.687Z,99185.81
2023-03-14T22:16:11.802Z,99186.84
2023-03-14T22:18:40.311Z,99197.41
2023-03-14T22:21:07.261Z,99204.50
2023-03-14T22:23:34.170Z,99219.34
2023-03-14T22:26:01.200Z,99209.03
2023-03-14T22:28:28.015Z,99211.25
2023-03-14T22:30:54.835Z,99208.69
2023-03-14T22:33:21.801Z,99230.44
2023-03-14T22:35:51.224Z,99236.31
2023-03-14T22:38:18.100Z,99255.44
2023-03-14T22:40:45.147Z,99281.16
2023-03-14T22:43:11.965Z,99288.03
2023-03-14T22:45:38.848Z,99301.50
2023-03-14T22:48:07.905Z,99309.03
2023-03-14T22:50:39.288Z,99310.00
2023-03-14T22:53:07.565Z,99322.44
2023-03-14T22:55:34.944Z,99326.72
2023-03-14T22:58:01.997Z,99338.88
2023-03-14T23:00:30.127Z,99349.63
2023-03-14T23:02:57.118Z,99356.16
2023-03-14T23:05:24.290Z,99357.00
2023-03-14T23:07:52.844Z,99368.72
2023-03-14T23:10:21.446Z,99367.75
2023-03-14T23:12:49.083Z,99374.38
2023-03-14T23:15:16.220Z,99372.38
2023-03-14T23:17:44.352Z,99377.53
2023-03-14T23:20:13.194Z,99380.84
2023-03-14T23:22:40.875Z,99388.22
2023-03-14T23:25:10.558Z,99395.00
2023-03-14T23:27:38.975Z,99385.94
2023-03-14T23:30:07.420Z,99395.91
2023-03-14T23:32:34.312Z,99394.38
2023-03-14T23:35:01.106Z,99397.34
2023-03-14T23:37:27.959Z,99399.47
2023-03-14T23:39:54.829Z,99407.69
2023-03-14T23:42:21.627Z,99408.88
2023-03-14T23:44:50.128Z,99405.19
2023-03-14T23:47:16.938Z,99416.34
2023-03-14T23:49:43.820Z,99425.19
2023-03-14T23:52:11.004Z,99424.38
2023-03-14T23:54:37.793Z,99431.72
2023-03-14T23:57:04.911Z,99445.75
2023-03-14T23:59:32.439Z,99451.91
